Time;durP1;ratioP1;P1;durP2;ratioP2;P2;SDS_P1;SDS_P2;PMS_P1;PMS_P2;Temp;Humidity;BMP_temperature;BMP_pressure;BME280_temperature;BME280_humidity;BME280_pressure;Samples;Min_cycle;Max_cycle;Signal;HPM_P1;HPM_P2
2024/02/28 00:00:46;;;;;;;;;;;;;;;20.67;35.77;101471.12;102656;1291;72979;-81
2024/02/28 00:03:11;;;;;;;;;;;;;;;20.67;35.68;101472.70;102673;1291;62214;-82
2024/02/28 00:05:37;;;;;;;;;;;;;;;20.67;35.76;101469.32;102690;1291;62282;-80
2024/02/28 00:08:03;;;;;;;;;;;;;;;20.67;35.66;101467.68;102607;1291;62224;-81
2024/02/28 00:10:28;;;;;;;;;;;;;;;20.67;35.67;101471.10;102759;1291;63461;-80
2024/02/28 00:12:54;;;;;;;;;;;;;;;20.68;35.70;101472.85;102705;1291;72244;-79
2024/02/28 00:15:19;;;;;;;;;;;;;;;20.68;35.83;101470.35;102646;1291;63373;-80
2024/02/28 00:17:45;;;;;;;;;;;;;;;20.68;35.68;101473.00;102638;1291;63465;-80
2024/02/28 00:20:11;;;;;;;;;;;;;;;20.68;35.63;101467.84;102689;1291;63451;-82
2024/02/28 00:22:37;;;;;;;;;;;;;;;20.68;35.63;101466.75;102674;1291;62502;-80
2024/02/28 00:25:03;;;;;;;;;;;;;;;20.68;35.66;101456.92;102682;1291;63326;-79
2024/02/28 00:27:28;;;;;;;;;;;;;;;20.68;35.66;101450.66;102706;1291;76079;-80
2024/02/28 00:29:54;;;;;;;;;;;;;;;20.69;35.72;101456.89;102850;1291;63376;-79
2024/02/28 00:32:21;;;;;;;;;;;;;;;20.69;35.71;101456.02;102642;1296;62146;-80
2024/02/28 00:34:46;;;;;;;;;;;;;;;20.69;35.69;101453.49;102673;1295;62185;-80
2024/02/28 00:37:12;;;;;;;;;;;;;;;20.69;35.70;101454.02;102923;1291;63249;-79
2024/02/28 00:39:37;;;;;;;;;;;;;;;20.70;35.61;101450.41;102994;1294;62253;-80
2024/02/28 00:42:03;;;;;;;;;;;;;;;20.70;35.53;101449.84;103009;1291;62194;-81
2024/02/28 00:44:29;;;;;;;;;;;;;;;20.70;35.66;101453.42;102656;1290;62233;-80
2024/02/28 00:46:54;;;;;;;;;;;;;;;20.70;35.62;101455.35;102641;1296;62153;-80
2024/02/28 00:49:20;;;;;;;;;;;;;;;20.71;35.57;101453.55;102933;1292;62219;-79
2024/02/28 00:51:46;;;;;;;;;;;;;;;20.71;35.59;101450.67;102649;1292;63364;-81
2024/02/28 00:54:12;;;;;;;;;;;;;;;20.71;35.62;101450.50;102649;1289;62309;-82
2024/02/28 00:56:37;;;;;;;;;;;;;;;20.71;35.60;101446.21;102902;1292;62186;-81
2024/02/28 00:59:03;;;;;;;;;;;;;;;20.71;35.61;101442.80;102791;1291;63379;-80
2024/02/28 01:01:28;;;;;;;;;;;;;;;20.71;35.70;101443.69;102793;1292;62195;-82
2024/02/28 01:03:54;;;;;;;;;;;;;;;20.72;35.66;101449.04;102731;1293;62206;-79
2024/02/28 01:06:19;;;;;;;;;;;;;;;20.72;35.53;101453.48;102760;1289;62178;-81
2024/02/28 01:08:45;;;;;;;;;;;;;;;20.72;35.70;101452.60;102843;1292;62243;-79
2024/02/28 01:11:11;;;;;;;;;;;;;;;20.72;35.57;101449.54;102660;1294;62945;-81
2024/02/28 01:13:37;;;;;;;;;;;;;;;20.72;35.60;101453.29;103039;1289;63355;-80
2024/02/28 01:16:03;;;;;;;;;;;;;;;20.73;35.59;101453.81;102806;1292;62193;-80
2024/02/28 01:18:30;;;;;;;;;;;;;;;20.73;35.49;101458.27;102871;1294;62128;-81
2024/02/28 01:20:56;;;;;;;;;;;;;;;20.73;35.63;101455.77;102804;1291;63292;-81
2024/02/28 01:23:22;;;;;;;;;;;;;;;20.73;35.59;101454.13;102618;1295;62230;-81
2024/02/28 01:25:48;;;;;;;;;;;;;;;20.73;35.56;101450.19;102849;1290;62142;-80
2024/02/28 01:28:14;;;;;;;;;;;;;;;20.74;35.50;101454.98;102673;1289;63378;-80
2024/02/28 01:30:39;;;;;;;;;;;;;;;20.74;35.60;101457.50;102713;1291;62308;-83
2024/02/28 01:33:05;;;;;;;;;;;;;;;20.74;35.60;101463.55;102749;1297;62382;-80
2024/02/28 01:35:30;;;;;;;;;;;;;;;20.74;35.60;101473.91;102797;1289;62189;-80
2024/02/28 01:37:56;;;;;;;;;;;;;;;20.75;35.50;101473.18;102677;1291;62285;-80
2024/02/28 01:40:22;;;;;;;;;;;;;;;20.75;35.55;101470.48;102873;1291;63112;-80
2024/02/28 01:42:48;;;;;;;;;;;;;;;20.75;35.47;101467.63;102639;1291;62214;-80
2024/02/28 01:45:14;;;;;;;;;;;;;;;20.75;35.56;101465.65;102866;1292;62233;-81
2024/02/28 01:47:40;;;;;;;;;;;;;;;20.75;35.45;101467.05;102664;1290;74704;-82
2024/02/28 01:50:05;;;;;;;;;;;;;;;20.75;35.55;101469.20;102664;1296;62192;-79
2024/02/28 01:52:31;;;;;;;;;;;;;;;20.76;35.45;101463.27;102893;1291;63240;-79
2024/02/28 01:54:56;;;;;;;;;;;;;;;20.76;35.41;101461.46;102773;1291;63478;-80
2024/02/28 01:57:22;;;;;;;;;;;;;;;20.76;35.54;101461.84;102762;1291;62668;-80
2024/02/28 01:59:48;;;;;;;;;;;;;;;20.76;35.43;101462.52;102736;1289;62174;-79
2024/02/28 02:02:13;;;;;;;;;;;;;;;20.76;35.46;101459.48;102691;1291;62248;-80
2024/02/28 02:04:39;;;;;;;;;;;;;;;20.77;35.52;101463.04;102760;1291;62192;-81
2024/02/28 02:07:05;;;;;;;;;;;;;;;20.77;35.43;101462.14;102716;1296;63436;-80
2024/02/28 02:09:31;;;;;;;;;;;;;;;20.77;35.53;101465.00;102693;1292;63453;-81
2024/02/28 02:11:56;;;;;;;;;;;;;;;20.77;35.44;101468.05;102730;1292;63228;-80
2024/02/28 02:14:22;;;;;;;;;;;;;;;20.77;35.40;101468.56;102870;1291;62259;-79
2024/02/28 02:16:47;;;;;;;;;;;;;;;20.78;35.30;101474.64;102769;1291;62168;-81
2024/02/28 02:19:13;;;;;;;;;;;;;;;20.77;35.53;101474.81;102730;1291;63307;-80
2024/02/28 02:21:44;;;;;;;;;;;;;;;20.78;35.54;101475.70;102742;1291;63382;-82
2024/02/28 02:24:10;;;;;;;;;;;;;;;20.79;35.37;101482.44;102663;1291;62236;-80
2024/02/28 02:26:36;;;;;;;;;;;;;;;20.79;35.43;101481.35;102783;1290;63410;-81
2024/02/28 02:29:02;;;;;;;;;;;;;;;20.79;35.49;101480.29;102788;1291;62208;-79
2024/02/28 02:31:28;;;;;;;;;;;;;;;20.79;35.45;101483.50;102659;1297;62081;-80
2024/02/28 02:33:55;;;;;;;;;;;;;;;20.79;35.35;101481.89;102703;1291;63486;-81
2024/02/28 02:36:20;;;;;;;;;;;;;;;20.80;35.42;101483.64;102839;1292;62114;-82
2024/02/28 02:38:46;;;;;;;;;;;;;;;20.80;35.37;101484.35;102741;1294;62216;-80
2024/02/28 02:41:12;;;;;;;;;;;;;;;20.80;35.39;101480.73;102815;1292;63357;-79
2024/02/28 02:43:38;;;;;;;;;;;;;;;20.80;35.29;101482.54;102702;1297;75273;-81
2024/02/28 02:46:04;;;;;;;;;;;;;;;20.80;35.35;101485.56;102640;1291;62227;-79
2024/02/28 02:48:30;;;;;;;;;;;;;;;20.81;35.37;101488.23;102767;1289;62202;-80
2024/02/28 02:50:55;;;;;;;;;;;;;;;20.80;35.47;101487.15;102931;1291;62129;-79
2024/02/28 02:53:21;;;;;;;;;;;;;;;20.81;35.44;101491.78;102798;1291;62168;-82
2024/02/28 02:55:46;;;;;;;;;;;;;;;20.80;35.37;101490.55;102800;1294;62275;-80
2024/02/28 02:58:12;;;;;;;;;;;;;;;20.81;35.31;101492.13;102805;1292;63308;-81
2024/02/28 03:00:37;;;;;;;;;;;;;;;20.82;35.29;101504.60;102964;1294;62133;-80
2024/02/28 03:03:03;;;;;;;;;;;;;;;20.82;35.36;101508.18;102638;1291;62227;-80
2024/02/28 03:05:29;;;;;;;;;;;;;;;20.83;35.38;101512.42;102631;1291;63386;-82
2024/02/28 03:07:54;;;;;;;;;;;;;;;20.82;35.26;101512.80;102873;1290;62110;-80
2024/02/28 03:10:20;;;;;;;;;;;;;;;20.83;35.32;101515.81;102707;1291;62089;-79
2024/02/28 03:12:45;;;;;;;;;;;;;;;20.83;35.29;101519.94;102700;1296;62220;-80
2024/02/28 03:15:11;;;;;;;;;;;;;;;20.84;35.16;101520.95;102729;1291;62508;-80
2024/02/28 03:17:36;;;;;;;;;;;;;;;20.84;35.23;101521.49;102828;1294;62229;-80
2024/02/28 03:20:02;;;;;;;;;;;;;;;20.84;35.27;101521.14;102716;1291;62294;-81
2024/02/28 03:22:27;;;;;;;;;;;;;;;20.84;35.19;101518.09;102658;1291;62230;-79
2024/02/28 03:24:53;;;;;;;;;;;;;;;20.84;35.26;101526.80;102761;1297;62189;-81
2024/02/28 03:27:18;;;;;;;;;;;;;;;20.84;35.20;101529.34;102671;1291;62295;-80
2024/02/28 03:29:44;;;;;;;;;;;;;;;20.84;35.15;101538.63;102810;1291;63510;-80
2024/02/28 03:32:09;;;;;;;;;;;;;;;20.85;35.20;101537.36;102836;1291;62234;-80
2024/02/28 03:34:35;;;;;;;;;;;;;;;20.85;35.18;101535.56;102662;1293;62226;-80
2024/02/28 03:37:00;;;;;;;;;;;;;;;20.85;35.30;101538.95;102726;1291;62276;-79
2024/02/28 03:39:26;;;;;;;;;;;;;;;20.85;35.29;101538.94;102830;1291;63287;-80
2024/02/28 03:41:52;;;;;;;;;;;;;;;20.85;35.10;101540.91;102739;1291;63153;-80
2024/02/28 03:44:18;;;;;;;;;;;;;;;20.86;35.14;101543.55;102884;1291;63321;-80
2024/02/28 03:46:43;;;;;;;;;;;;;;;20.86;35.15;101545.55;102982;1291;62226;-80
2024/02/28 03:49:09;;;;;;;;;;;;;;;20.86;35.15;101547.48;102799;1290;62118;-80
2024/02/28 03:51:41;;;;;;;;;;;;;;;20.86;35.08;101547.48;102721;1295;62252;-80
2024/02/28 03:54:06;;;;;;;;;;;;;;;20.87;35.19;101553.69;102613;1291;75122;-80
2024/02/28 03:56:32;;;;;;;;;;;;;;;20.87;35.22;101548.67;102727;1295;62218;-79
2024/02/28 03:58:57;;;;;;;;;;;;;;;20.87;35.04;101546.90;103005;1292;63333;-80
2024/02/28 04:01:23;;;;;;;;;;;;;;;20.86;34.97;101544.95;102827;1291;63366;-83
2024/02/28 04:03:48;;;;;;;;;;;;;;;20.86;34.99;101547.45;103013;1294;63254;-79
2024/02/28 04:06:14;;;;;;;;;;;;;;;20.86;35.06;101549.48;102659;1291;75744;-79
2024/02/28 04:08:42;;;;;;;;;;;;;;;20.85;34.92;101546.64;102884;1291;62524;-80
2024/02/28 04:11:08;;;;;;;;;;;;;;;20.84;34.78;101545.61;102247;1291;712681;-80
2024/02/28 04:13:33;;;;;;;;;;;;;;;20.82;34.87;101545.73;102905;1294;62518;-80
2024/02/28 04:15:59;;;;;;;;;;;;;;;20.81;34.71;101546.55;102661;1290;62260;-81
2024/02/28 04:18:24;;;;;;;;;;;;;;;20.80;34.60;101550.86;103044;1290;62217;-83
2024/02/28 04:20:50;;;;;;;;;;;;;;;20.79;34.69;101553.61;102693;1291;62218;-80
2024/02/28 04:23:16;;;;;;;;;;;;;;;20.78;34.42;101555.27;102881;1291;62155;-78
2024/02/28 04:25:42;;;;;;;;;;;;;;;20.78;34.37;101556.38;102703;1290;72619;-80
2024/02/28 04:28:08;;;;;;;;;;;;;;;20.77;34.27;101554.46;102671;1292;63367;-79
2024/02/28 04:30:35;;;;;;;;;;;;;;;20.78;34.33;101553.16;102865;1290;62200;-80
2024/02/28 04:33:01;;;;;;;;;;;;;;;20.79;34.32;101554.34;103000;1294;62232;-80
2024/02/28 04:35:27;;;;;;;;;;;;;;;20.80;34.47;101557.83;102634;1290;62225;-81
2024/02/28 04:37:52;;;;;;;;;;;;;;;20.83;34.40;101559.08;102919;1294;63357;-79
2024/02/28 04:40:18;;;;;;;;;;;;;;;20.85;34.44;101556.48;102752;1290;62871;-81
2024/02/28 04:42:44;;;;;;;;;;;;;;;20.87;34.34;101556.91;102871;1294;62123;-80
2024/02/28 04:45:09;;;;;;;;;;;;;;;20.88;34.38;101558.65;102774;1292;62593;-79
2024/02/28 04:47:36;;;;;;;;;;;;;;;20.90;34.45;101561.31;102851;1291;63454;-79
2024/02/28 04:50:01;;;;;;;;;;;;;;;20.90;34.40;101561.02;102684;1290;62235;-79
2024/02/28 04:52:27;;;;;;;;;;;;;;;20.91;34.48;101562.94;102725;1290;62214;-78
2024/02/28 04:54:53;;;;;;;;;;;;;;;20.92;34.41;101565.17;102745;1292;63454;-81
2024/02/28 04:57:19;;;;;;;;;;;;;;;20.93;34.39;101570.29;102649;1292;62521;-79
2024/02/28 04:59:45;;;;;;;;;;;;;;;20.95;34.27;101571.85;102871;1292;62206;-80
2024/02/28 05:02:10;;;;;;;;;;;;;;;20.95;34.32;101571.30;102806;1292;62263;-79
2024/02/28 05:04:36;;;;;;;;;;;;;;;20.96;34.31;101573.60;102668;1290;62253;-80
2024/02/28 05:07:01;;;;;;;;;;;;;;;20.96;34.39;101574.48;102887;1294;62171;-80
2024/02/28 05:09:27;;;;;;;;;;;;;;;20.97;34.14;101572.80;102917;1293;62093;-78
2024/02/28 05:11:53;;;;;;;;;;;;;;;20.97;34.25;101571.33;102835;1296;62203;-80
2024/02/28 05:14:18;;;;;;;;;;;;;;;20.98;34.16;101571.30;103207;1293;63330;-78
2024/02/28 05:16:44;;;;;;;;;;;;;;;20.98;34.15;101571.47;103221;1291;62196;-79
2024/02/28 05:19:09;;;;;;;;;;;;;;;20.98;34.18;101569.67;103701;1293;62192;-79
2024/02/28 05:21:42;;;;;;;;;;;;;;;20.99;34.12;101577.52;103330;1291;62299;-79
2024/02/28 05:24:07;;;;;;;;;;;;;;;20.99;34.16;101575.19;103435;1291;73416;-79
2024/02/28 05:26:37;;;;;;;;;;;;;;;21.00;34.30;101577.44;103436;1291;62221;-80
2024/02/28 05:29:03;;;;;;;;;;;;;;;21.01;34.31;101578.46;103115;1291;62140;-81
2024/02/28 05:31:28;;;;;;;;;;;;;;;21.01;34.24;101576.48;103056;1291;62129;-81
2024/02/28 05:33:56;;;;;;;;;;;;;;;21.01;34.29;101577.73;103142;1291;62547;-80
2024/02/28 05:36:22;;;;;;;;;;;;;;;21.00;34.07;101575.48;103328;1294;62260;-80
2024/02/28 05:38:47;;;;;;;;;;;;;;;20.99;34.23;101572.34;103382;1291;63095;-80
2024/02/28 05:41:13;;;;;;;;;;;;;;;20.95;34.15;101575.95;103324;1289;62118;-80
2024/02/28 05:43:40;;;;;;;;;;;;;;;20.89;34.18;101583.77;103214;1291;62295;-80
2024/02/28 05:46:06;;;;;;;;;;;;;;;20.83;34.15;101581.99;103150;1291;62157;-80
2024/02/28 05:48:31;;;;;;;;;;;;;;;20.77;34.15;101578.45;103172;1291;62292;-79
2024/02/28 05:50:57;;;;;;;;;;;;;;;20.71;34.18;101581.10;103451;1291;62191;-81
2024/02/28 05:53:26;;;;;;;;;;;;;;;20.64;34.18;101577.52;103686;1290;62280;-78
2024/02/28 05:55:53;;;;;;;;;;;;;;;20.57;34.00;101576.84;104135;1291;72660;-80
2024/02/28 05:58:19;;;;;;;;;;;;;;;20.48;34.03;101582.88;104219;1295;75316;-81
2024/02/28 06:00:45;;;;;;;;;;;;;;;20.37;34.08;101581.69;104278;1294;62131;-80
2024/02/28 06:03:10;;;;;;;;;;;;;;;20.31;34.14;101587.73;104141;1291;62206;-81
2024/02/28 06:05:36;;;;;;;;;;;;;;;20.23;34.20;101591.24;104564;1291;62150;-81
2024/02/28 06:08:01;;;;;;;;;;;;;;;20.19;34.33;101594.85;104245;1289;60402;-82
2024/02/28 06:10:27;;;;;;;;;;;;;;;20.15;34.19;101600.80;104288;1292;62091;-79
2024/02/28 06:12:52;;;;;;;;;;;;;;;20.12;34.33;101601.50;104006;1291;62218;-79
2024/02/28 06:15:18;;;;;;;;;;;;;;;20.10;34.27;101598.73;104077;1289;62204;-80
2024/02/28 06:17:44;;;;;;;;;;;;;;;20.10;34.23;101603.54;104184;1291;62115;-81
2024/02/28 06:20:10;;;;;;;;;;;;;;;20.11;34.47;101608.15;104133;1291;62261;-80
2024/02/28 06:22:35;;;;;;;;;;;;;;;20.07;34.36;101607.98;103903;1291;62187;-80
2024/02/28 06:25:01;;;;;;;;;;;;;;;19.93;34.45;101610.73;104359;1291;62213;-80
2024/02/28 06:27:26;;;;;;;;;;;;;;;19.85;34.74;101614.58;104091;1291;65407;-79
2024/02/28 06:29:52;;;;;;;;;;;;;;;19.77;34.68;101618.15;104137;1291;62088;-79
2024/02/28 06:32:18;;;;;;;;;;;;;;;19.72;34.91;101618.60;104287;1290;62206;-79
2024/02/28 06:34:43;;;;;;;;;;;;;;;19.65;34.67;101621.99;103845;1290;62209;-79
2024/02/28 06:37:09;;;;;;;;;;;;;;;19.32;34.66;101619.76;103755;1291;62212;-79
2024/02/28 06:39:34;;;;;;;;;;;;;;;19.13;34.87;101622.84;103666;1294;62167;-80
2024/02/28 06:42:00;;;;;;;;;;;;;;;19.04;34.84;101621.88;103717;1289;62083;-80
2024/02/28 06:44:25;;;;;;;;;;;;;;;18.91;34.77;101626.07;104006;1291;62709;-81
2024/02/28 06:46:51;;;;;;;;;;;;;;;18.87;34.98;101626.94;103872;1291;62204;-79
2024/02/28 06:49:18;;;;;;;;;;;;;;;18.93;34.90;101626.48;104017;1291;62209;-80
2024/02/28 06:51:44;;;;;;;;;;;;;;;19.00;34.92;101625.30;103891;1296;62272;-80
2024/02/28 06:54:10;;;;;;;;;;;;;;;19.05;34.94;101622.34;104142;1291;62175;-81
2024/02/28 06:56:36;;;;;;;;;;;;;;;19.03;34.94;101624.96;104220;1291;62218;-81
2024/02/28 06:59:01;;;;;;;;;;;;;;;18.97;34.97;101631.17;104296;1290;62199;-78
2024/02/28 07:01:27;;;;;;;;;;;;;;;18.87;35.18;101627.48;104381;1289;63284;-80
2024/02/28 07:03:52;;;;;;;;;;;;;;;18.90;35.38;101630.38;104172;1291;62197;-80
2024/02/28 07:06:18;;;;;;;;;;;;;;;18.96;35.50;101641.33;104114;1290;62157;-80
2024/02/28 07:08:43;;;;;;;;;;;;;;;19.02;35.52;101641.25;103961;1290;62218;-80
2024/02/28 07:11:15;;;;;;;;;;;;;;;19.06;35.51;101641.91;103790;1292;63259;-80
2024/02/28 07:13:41;;;;;;;;;;;;;;;19.11;35.45;101640.83;104193;1290;62035;-79
2024/02/28 07:16:06;;;;;;;;;;;;;;;19.12;35.40;101638.05;103930;1293;62198;-80
2024/02/28 07:18:32;;;;;;;;;;;;;;;19.14;35.35;101641.73;103672;1291;62205;-81
2024/02/28 07:20:58;;;;;;;;;;;;;;;19.15;35.28;101639.90;104128;1290;62115;-79
2024/02/28 07:23:24;;;;;;;;;;;;;;;19.16;35.43;101640.52;104123;1295;62131;-80
2024/02/28 07:25:50;;;;;;;;;;;;;;;19.20;35.22;101638.21;103834;1291;62202;-80
2024/02/28 07:28:15;;;;;;;;;;;;;;;19.26;35.17;101638.25;103899;1291;62194;-79
2024/02/28 07:30:42;;;;;;;;;;;;;;;19.35;35.17;101638.91;103976;1292;62201;-80
2024/02/28 07:33:08;;;;;;;;;;;;;;;19.44;35.07;101646.11;103883;1292;62120;-80
2024/02/28 07:35:43;;;;;;;;;;;;;;;19.53;35.07;101648.48;103846;1291;62271;-80
2024/02/28 07:38:09;;;;;;;;;;;;;;;19.61;35.09;101646.14;103898;1293;72697;-81
2024/02/28 07:40:34;;;;;;;;;;;;;;;19.64;35.22;101652.75;103965;1294;62284;-82
2024/02/28 07:43:00;;;;;;;;;;;;;;;19.66;35.03;101656.40;104129;1296;62209;-80
2024/02/28 07:45:25;;;;;;;;;;;;;;;19.69;35.19;101651.59;104287;1291;62134;-80
2024/02/28 07:47:51;;;;;;;;;;;;;;;19.74;35.13;101657.42;104152;1289;62186;-80
2024/02/28 07:50:17;;;;;;;;;;;;;;;19.81;34.99;101654.93;104454;1291;72518;-79
2024/02/28 07:52:42;;;;;;;;;;;;;;;19.89;34.95;101658.67;104608;1290;60448;-80
2024/02/28 07:55:08;;;;;;;;;;;;;;;19.94;35.10;101653.73;104779;1291;62126;-80
2024/02/28 07:57:33;;;;;;;;;;;;;;;19.98;34.95;101651.36;104833;1290;62203;-80
2024/02/28 08:00:00;;;;;;;;;;;;;;;20.01;35.04;101651.95;104845;1290;60189;-79
2024/02/28 08:02:26;;;;;;;;;;;;;;;20.04;35.34;101649.43;104592;1292;62118;-79
2024/02/28 08:04:51;;;;;;;;;;;;;;;20.11;35.70;101652.48;104443;1291;62250;-80
2024/02/28 08:07:17;;;;;;;;;;;;;;;20.16;35.83;101655.44;104560;1290;62073;-80
2024/02/28 08:09:42;;;;;;;;;;;;;;;20.21;36.08;101655.17;104592;1291;61674;-79
2024/02/28 08:12:08;;;;;;;;;;;;;;;20.23;36.08;101652.92;104740;1290;62119;-80
2024/02/28 08:14:34;;;;;;;;;;;;;;;20.22;36.03;101652.98;104525;1291;62201;-79
2024/02/28 08:17:01;;;;;;;;;;;;;;;20.21;36.11;101648.71;104181;1290;62202;-79
2024/02/28 08:19:26;;;;;;;;;;;;;;;20.23;35.99;101650.03;104330;1290;60506;-79
2024/02/28 08:21:52;;;;;;;;;;;;;;;20.26;36.15;101649.36;104711;1291;62109;-78
2024/02/28 08:24:17;;;;;;;;;;;;;;;20.29;35.97;101647.59;104705;1293;73227;-81
2024/02/28 08:26:44;;;;;;;;;;;;;;;20.32;36.03;101649.05;104540;1291;62257;-81
2024/02/28 08:29:09;;;;;;;;;;;;;;;20.34;36.14;101649.47;104504;1291;61968;-82
2024/02/28 08:31:39;;;;;;;;;;;;;;;20.37;36.14;101644.65;104217;1291;62208;-81
2024/02/28 08:34:05;;;;;;;;;;;;;;;20.40;36.04;101640.02;104330;1291;72945;-82
2024/02/28 08:36:31;;;;;;;;;;;;;;;20.42;36.25;101642.95;104036;1291;62309;-81
2024/02/28 08:38:56;;;;;;;;;;;;;;;20.44;36.21;101640.14;104163;1289;62243;-81
2024/02/28 08:41:22;;;;;;;;;;;;;;;20.46;36.25;101645.23;104343;1294;62096;-82
2024/02/28 08:43:47;;;;;;;;;;;;;;;20.48;36.26;101645.80;104452;1291;62195;-81
2024/02/28 08:46:16;;;;;;;;;;;;;;;20.50;36.23;101641.27;104034;1292;63616;-82
2024/02/28 08:48:42;;;;;;;;;;;;;;;20.52;36.34;101642.21;104287;1291;75286;-79
2024/02/28 08:51:07;;;;;;;;;;;;;;;20.53;36.14;101638.23;104612;1290;62139;-80
2024/02/28 08:53:33;;;;;;;;;;;;;;;20.50;36.17;101642.51;104961;1291;60983;-80
2024/02/28 08:55:58;;;;;;;;;;;;;;;20.44;36.02;101644.05;104904;1290;62067;-79
2024/02/28 08:58:24;;;;;;;;;;;;;;;20.41;36.23;101647.65;104784;1294;62122;-78
2024/02/28 09:00:49;;;;;;;;;;;;;;;20.41;36.12;101644.39;104766;1291;59878;-78
2024/02/28 09:03:15;;;;;;;;;;;;;;;20.43;36.19;101644.31;104935;1291;62092;-80
2024/02/28 09:05:40;;;;;;;;;;;;;;;20.45;36.28;101644.38;104566;1290;62197;-78
2024/02/28 09:08:06;;;;;;;;;;;;;;;20.48;36.49;101640.84;104481;1290;62060;-79
2024/02/28 09:10:34;;;;;;;;;;;;;;;20.51;36.34;101643.34;104643;1291;62172;-78
2024/02/28 09:12:59;;;;;;;;;;;;;;;20.50;36.59;101638.54;106157;1291;60031;-79
2024/02/28 09:15:25;;;;;;;;;;;;;;;20.51;36.34;101644.59;106233;1291;59192;-79
2024/02/28 09:17:50;;;;;;;;;;;;;;;20.51;36.53;101641.16;106195;1289;59190;-79
2024/02/28 09:20:16;;;;;;;;;;;;;;;20.53;36.43;101639.08;106169;1293;59776;-80
2024/02/28 09:22:43;;;;;;;;;;;;;;;20.56;36.23;101641.25;105029;1290;75251;-79
2024/02/28 09:25:08;;;;;;;;;;;;;;;20.60;36.34;101642.66;104289;1293;62215;-78
2024/02/28 09:27:35;;;;;;;;;;;;;;;20.63;36.32;101644.48;104337;1289;62058;-79
2024/02/28 09:30:01;;;;;;;;;;;;;;;20.66;36.39;101639.85;104473;1291;62182;-78
2024/02/28 09:32:27;;;;;;;;;;;;;;;20.68;36.41;101633.28;104245;1291;63290;-80
2024/02/28 09:34:52;;;;;;;;;;;;;;;20.70;36.22;101629.79;104339;1290;62306;-80
2024/02/28 09:37:20;;;;;;;;;;;;;;;20.71;36.25;101631.86;104608;1290;62069;-79
2024/02/28 09:39:45;;;;;;;;;;;;;;;20.73;36.19;101628.73;104379;1291;60593;-79
2024/02/28 09:42:11;;;;;;;;;;;;;;;20.75;36.36;101625.72;104612;1294;62055;-79
2024/02/28 09:44:36;;;;;;;;;;;;;;;20.78;36.22;101629.17;104349;1295;62173;-79
2024/02/28 09:47:02;;;;;;;;;;;;;;;20.79;36.23;101630.73;104423;1289;62211;-79
2024/02/28 09:49:27;;;;;;;;;;;;;;;20.74;36.04;101634.20;104568;1291;62060;-81
2024/02/28 09:51:53;;;;;;;;;;;;;;;20.63;36.11;101637.14;104807;1288;62105;-80
2024/02/28 09:54:19;;;;;;;;;;;;;;;20.51;36.11;101637.63;105159;1291;61965;-82
2024/02/28 09:56:44;;;;;;;;;;;;;;;20.33;36.10;101637.89;105065;1289;60567;-80
2024/02/28 09:59:10;;;;;;;;;;;;;;;20.23;36.30;101639.12;105096;1291;62553;-81
2024/02/28 10:01:37;;;;;;;;;;;;;;;20.11;36.08;101635.31;105204;1291;61933;-79
2024/02/28 10:04:03;;;;;;;;;;;;;;;19.81;35.72;101628.33;104942;1290;62194;-80
2024/02/28 10:06:31;;;;;;;;;;;;;;;19.51;36.04;101628.98;105665;1289;60574;-83
2024/02/28 10:08:57;;;;;;;;;;;;;;;19.35;36.41;101626.41;105032;1290;60195;-81
2024/02/28 10:11:24;;;;;;;;;;;;;;;19.41;36.80;101621.25;104847;1291;62075;-81
2024/02/28 10:13:49;;;;;;;;;;;;;;;19.51;36.89;101622.04;104688;1290;62156;-80
2024/02/28 10:16:18;;;;;;;;;;;;;;;19.55;36.92;101624.64;104876;1291;62148;-81
2024/02/28 10:18:44;;;;;;;;;;;;;;;19.56;36.81;101620.86;104899;1295;62128;-81
2024/02/28 10:21:12;;;;;;;;;;;;;;;19.38;36.85;101616.98;104852;1291;62078;-81
2024/02/28 10:23:37;;;;;;;;;;;;;;;19.31;36.87;101614.44;104747;1292;62590;-81
2024/02/28 10:26:03;;;;;;;;;;;;;;;19.34;37.18;101608.76;105023;1291;63347;-81
2024/02/28 10:28:29;;;;;;;;;;;;;;;19.35;37.09;101611.05;105055;1291;61159;-82
2024/02/28 10:30:54;;;;;;;;;;;;;;;19.24;37.01;101610.88;104707;1291;62167;-80
2024/02/28 10:33:20;;;;;;;;;;;;;;;19.29;36.89;101602.27;104763;1291;62015;-81
2024/02/28 10:35:46;;;;;;;;;;;;;;;19.33;36.92;101601.67;105289;1291;60958;-81
2024/02/28 10:38:12;;;;;;;;;;;;;;;19.37;36.90;101592.90;105206;1290;73962;-82
2024/02/28 10:40:39;;;;;;;;;;;;;;;19.40;36.75;101589.52;104928;1292;60430;-82
2024/02/28 10:43:04;;;;;;;;;;;;;;;19.35;36.51;101588.02;105045;1291;61704;-79
2024/02/28 10:45:33;;;;;;;;;;;;;;;19.33;36.68;101589.73;105032;1291;62090;-81
2024/02/28 10:47:58;;;;;;;;;;;;;;;19.40;36.50;101587.92;104946;1291;75449;-83
2024/02/28 10:50:25;;;;;;;;;;;;;;;19.50;36.69;101590.12;105064;1292;62062;-82
2024/02/28 10:52:51;;;;;;;;;;;;;;;19.59;36.53;101596.23;104678;1294;62164;-81
2024/02/28 10:55:25;;;;;;;;;;;;;;;19.61;36.50;101598.61;104737;1294;60481;-81
2024/02/28 10:57:54;;;;;;;;;;;;;;;19.64;36.36;101593.66;104500;1291;74712;-82
2024/02/28 11:00:19;;;;;;;;;;;;;;;19.70;36.52;101590.31;104573;1291;62055;-83
2024/02/28 11:02:45;;;;;;;;;;;;;;;19.73;36.23;101591.05;105062;1289;61056;-82
2024/02/28 11:05:10;;;;;;;;;;;;;;;19.68;36.26;101590.78;104895;1291;60013;-82
2024/02/28 11:07:40;;;;;;;;;;;;;;;19.48;35.99;101588.94;104810;1292;63170;-82
2024/02/28 11:10:06;;;;;;;;;;;;;;;19.26;36.07;101583.12;105905;1291;60449;-81
2024/02/28 11:12:32;;;;;;;;;;;;;;;19.13;36.18;101585.41;105924;1290;60340;-80
2024/02/28 11:15:01;;;;;;;;;;;;;;;18.90;35.91;101588.13;106049;1291;60050;-81
2024/02/28 11:17:31;;;;;;;;;;;;;;;18.75;36.22;101581.88;104700;1290;75338;-81
2024/02/28 11:19:57;;;;;;;;;;;;;;;18.79;36.41;101576.31;104761;1289;62092;-82
2024/02/28 11:22:23;;;;;;;;;;;;;;;18.90;36.52;101571.36;104725;1290;62183;-82
2024/02/28 11:24:49;;;;;;;;;;;;;;;19.02;36.44;101567.93;105024;1292;62071;-83
2024/02/28 11:27:15;;;;;;;;;;;;;;;19.13;36.33;101560.91;104769;1294;62124;-83
2024/02/28 11:29:40;;;;;;;;;;;;;;;19.19;36.22;101554.17;104883;1290;60417;-81
2024/02/28 11:32:06;;;;;;;;;;;;;;;19.15;36.18;101546.53;105041;1291;62497;-81
2024/02/28 11:34:32;;;;;;;;;;;;;;;19.16;36.20;101543.64;104984;1290;60620;-80
2024/02/28 11:36:58;;;;;;;;;;;;;;;19.17;36.26;101536.64;104715;1297;62750;-82
2024/02/28 11:39:27;;;;;;;;;;;;;;;19.21;36.40;101538.07;104797;1290;62146;-81
2024/02/28 11:41:52;;;;;;;;;;;;;;;19.28;36.39;101535.92;104846;1292;60909;-82
2024/02/28 11:44:18;;;;;;;;;;;;;;;19.31;36.20;101534.13;104945;1291;62095;-81
2024/02/28 11:46:47;;;;;;;;;;;;;;;19.27;36.01;101538.08;104732;1289;62169;-81
2024/02/28 11:49:13;;;;;;;;;;;;;;;19.00;35.80;101528.59;104817;1290;75120;-80
2024/02/28 11:51:42;;;;;;;;;;;;;;;18.89;36.16;101526.98;104815;1295;62427;-81
2024/02/28 11:54:08;;;;;;;;;;;;;;;18.99;36.34;101522.59;104911;1291;60499;-80
2024/02/28 11:56:34;;;;;;;;;;;;;;;19.10;36.24;101517.55;104803;1295;60644;-80
2024/02/28 11:59:00;;;;;;;;;;;;;;;19.24;36.60;101517.20;104979;1290;62223;-80
2024/02/28 12:01:36;;;;;;;;;;;;;;;19.24;36.31;101515.58;104908;1292;63370;-80
2024/02/28 12:04:02;;;;;;;;;;;;;;;19.30;36.50;101516.34;105166;1294;61198;-81
2024/02/28 12:06:29;;;;;;;;;;;;;;;19.32;36.27;101516.44;104806;1291;72444;-81
2024/02/28 12:08:54;;;;;;;;;;;;;;;19.09;36.04;101507.96;105917;1290;60030;-81
2024/02/28 12:11:19;;;;;;;;;;;;;;;18.96;36.17;101506.02;105769;1292;60536;-81
2024/02/28 12:13:45;;;;;;;;;;;;;;;18.91;36.12;101503.00;105856;1289;60428;-81
2024/02/28 12:16:10;;;;;;;;;;;;;;;18.88;36.29;101501.35;105827;1294;60300;-81
2024/02/28 12:18:36;;;;;;;;;;;;;;;18.99;36.32;101496.35;105068;1290;61324;-80